Time;durP1;ratioP1;P1;durP2;ratioP2;P2;SDS_P1;SDS_P2;PMS_P1;PMS_P2;Temp;Humidity;BMP_temperature;BMP_pressure;BME280_temperature;BME280_humidity;BME280_pressure;Samples;Min_cycle;Max_cycle;Signal;HPM_P1;HPM_P2
2024/01/05 00:02:39;;;;;;;3.10;2.40;;;;;;;-0.96;87.54;98799.88;216323;1262;139975;-74
2024/01/05 00:07:41;;;;;;;4.30;3.80;;;;;;;-0.97;87.70;98809.24;216152;1264;141110;-74
2024/01/05 00:12:44;;;;;;;4.40;4.00;;;;;;;-0.96;88.01;98820.23;217435;1262;140582;-76
2024/01/05 00:17:48;;;;;;;3.80;3.50;;;;;;;-0.94;87.78;98832.22;216696;1264;139726;-73
2024/01/05 00:22:52;;;;;;;3.40;2.90;;;;;;;-0.95;87.26;98843.59;216013;1267;140650;-76
2024/01/05 00:27:55;;;;;;;3.30;3.00;;;;;;;-0.98;86.94;98848.42;216338;1267;140998;-77
2024/01/05 00:33:00;;;;;;;4.00;2.80;;;;;;;-1.03;87.02;98853.48;216301;1267;139886;-74
2024/01/05 00:38:04;;;;;;;5.30;2.60;;;;;;;-1.03;86.61;98863.65;216373;1267;139986;-74
2024/01/05 00:43:09;;;;;;;4.10;3.00;;;;;;;-1.05;86.47;98866.28;216311;1264;140409;-76
2024/01/05 00:48:12;;;;;;;2.40;2.20;;;;;;;-1.06;86.51;98871.89;216610;1267;139572;-73
2024/01/05 00:53:15;;;;;;;34.20;12.50;;;;;;;-1.08;86.03;98883.38;216278;1266;139640;-71
2024/01/05 00:58:18;;;;;;;6.40;4.80;;;;;;;-1.07;86.19;98888.05;216418;1265;140810;-72
2024/01/05 01:03:20;;;;;;;4.50;3.40;;;;;;;-1.08;85.98;98895.41;216107;1267;140119;-73
2024/01/05 01:08:23;;;;;;;3.80;2.10;;;;;;;-1.10;85.42;98895.30;216464;1266;140227;-73
2024/01/05 01:13:26;;;;;;;3.40;2.80;;;;;;;-1.11;85.32;98892.48;216333;1264;141598;-70
2024/01/05 01:18:29;;;;;;;4.70;3.90;;;;;;;-1.12;85.41;98891.89;216268;1264;140020;-71
2024/01/05 01:23:32;;;;;;;3.40;2.50;;;;;;;-1.11;85.42;98894.91;216199;1265;140052;-75
2024/01/05 01:28:35;;;;;;;3.10;2.80;;;;;;;-1.11;85.14;98898.70;216091;1264;140037;-72
2024/01/05 01:33:39;;;;;;;3.50;2.30;;;;;;;-1.13;84.93;98905.11;216476;1262;139764;-74
2024/01/05 01:38:41;;;;;;;4.90;3.20;;;;;;;-1.14;84.78;98918.70;216366;1263;140403;-72
2024/01/05 01:43:48;;;;;;;5.70;3.70;;;;;;;-1.15;84.87;98917.59;218999;1262;141381;-74
2024/01/05 01:48:56;;;;;;;3.40;2.30;;;;;;;-1.16;84.58;98932.14;217766;1264;141648;-73
2024/01/05 01:54:02;;;;;;;3.30;2.10;;;;;;;-1.15;84.50;98935.14;215831;1267;140388;-72
2024/01/05 01:59:06;;;;;;;4.50;2.50;;;;;;;-1.17;84.50;98940.05;215679;1264;140596;-72
2024/01/05 02:04:14;;;;;;;5.60;2.70;;;;;;;-1.17;84.24;98949.11;216037;1264;140633;-72
2024/01/05 02:09:18;;;;;;;2.60;2.10;;;;;;;-1.16;84.26;98954.27;215749;1264;140170;-73
2024/01/05 02:14:21;;;;;;;3.50;2.10;;;;;;;-1.18;83.75;98965.70;216942;1264;140441;-68
2024/01/05 02:19:25;;;;;;;5.30;2.60;;;;;;;-1.21;83.54;98970.17;215744;1264;140538;-70
2024/01/05 02:24:30;;;;;;;2.10;1.70;;;;;;;-1.26;83.09;98976.06;216933;1264;139626;-71
2024/01/05 02:29:33;;;;;;;3.10;2.00;;;;;;;-1.34;82.76;98978.83;215779;1267;140342;-69
2024/01/05 02:34:37;;;;;;;1.90;1.60;;;;;;;-1.46;82.28;98981.15;216359;1265;140262;-69
2024/01/05 02:39:40;;;;;;;1.30;1.20;;;;;;;-1.60;81.56;98987.88;216730;1265;139682;-69
2024/01/05 02:44:44;;;;;;;2.10;1.50;;;;;;;-1.75;81.21;98999.59;215884;1264;140759;-68
2024/01/05 02:49:47;;;;;;;2.10;1.60;;;;;;;-1.85;81.22;99006.63;217029;1264;139628;-70
2024/01/05 02:54:50;;;;;;;2.20;1.40;;;;;;;-1.86;81.20;99006.61;216869;1267;140278;-69
2024/01/05 02:59:53;;;;;;;3.20;1.90;;;;;;;-1.83;81.25;99013.20;215839;1267;140780;-70
2024/01/05 03:04:57;;;;;;;3.80;2.20;;;;;;;-1.84;80.89;99015.80;216002;1264;141196;-71
2024/01/05 03:10:01;;;;;;;2.60;2.00;;;;;;;-1.91;80.67;99023.95;215846;1264;141239;-69
2024/01/05 03:15:04;;;;;;;4.60;2.30;;;;;;;-1.96;80.68;99032.03;215720;1264;140887;-71
2024/01/05 03:20:09;;;;;;;5.30;2.10;;;;;;;-2.01;80.65;99040.35;215780;1267;139798;-69
2024/01/05 03:25:13;;;;;;;2.80;2.50;;;;;;;-2.07;80.40;99047.05;216887;1264;139926;-70
2024/01/05 03:30:16;;;;;;;3.20;2.40;;;;;;;-2.13;80.40;99041.99;216071;1264;140487;-69
2024/01/05 03:35:19;;;;;;;1.60;1.50;;;;;;;-2.13;80.64;99031.10;217565;1264;143219;-68
2024/01/05 03:40:23;;;;;;;2.00;1.80;;;;;;;-2.14;80.56;99028.56;218900;1264;141041;-71
2024/01/05 03:45:26;;;;;;;2.30;2.00;;;;;;;-2.19;80.74;99032.96;216637;1264;140778;-71
2024/01/05 03:50:29;;;;;;;5.70;2.10;;;;;;;-2.27;80.25;99040.86;219001;1264;142089;-73
2024/01/05 03:55:32;;;;;;;1.90;1.60;;;;;;;-2.37;80.43;99043.67;216310;1264;140441;-71
2024/01/05 04:00:35;;;;;;;1.50;1.60;;;;;;;-2.44;80.73;99062.35;217125;1264;141202;-72
2024/01/05 04:05:38;;;;;;;2.70;1.90;;;;;;;-2.48;80.84;99067.02;216108;1264;140060;-72
2024/01/05 04:10:42;;;;;;;2.70;1.60;;;;;;;-2.52;81.09;99071.81;215826;1267;140056;-71
2024/01/05 04:15:46;;;;;;;2.50;2.20;;;;;;;-2.55;81.41;99066.50;215986;1264;141518;-67
2024/01/05 04:20:49;;;;;;;2.10;1.50;;;;;;;-2.56;81.34;99059.13;216173;1264;141947;-68
2024/01/05 04:25:53;;;;;;;2.50;1.60;;;;;;;-2.58;81.42;99058.91;216097;1267;140495;-67
2024/01/05 04:30:59;;;;;;;1.70;1.50;;;;;;;-2.63;81.40;99064.49;216738;1264;233314;-68
2024/01/05 04:36:03;;;;;;;2.30;1.70;;;;;;;-2.66;81.57;99070.40;215983;1267;140881;-67
2024/01/05 04:41:06;;;;;;;4.40;1.50;;;;;;;-2.69;81.75;99074.90;215924;1266;140594;-67
2024/01/05 04:46:10;;;;;;;2.20;2.00;;;;;;;-2.71;81.86;99079.21;216057;1264;140970;-69
2024/01/05 04:51:13;;;;;;;4.70;3.00;;;;;;;-2.69;82.24;99082.46;215984;1265;141044;-68
2024/01/05 04:56:16;;;;;;;3.30;1.40;;;;;;;-2.65;82.34;99080.21;217339;1264;141103;-69
2024/01/05 05:01:19;;;;;;;2.20;1.40;;;;;;;-2.64;82.37;99078.98;216409;1264;140061;-68
2024/01/05 05:06:22;;;;;;;1.30;0.90;;;;;;;-2.62;82.42;99077.93;215958;1264;139888;-64
2024/01/05 05:11:24;;;;;;;2.60;1.90;;;;;;;-2.59;82.51;99081.25;217236;1264;141126;-67
2024/01/05 05:16:27;;;;;;;1.40;1.30;;;;;;;-2.58;82.58;99086.57;217952;1264;140325;-70
2024/01/05 05:21:31;;;;;;;1.30;1.20;;;;;;;-2.58;82.50;99087.77;215763;1263;140300;-70
2024/01/05 05:26:35;;;;;;;1.80;1.60;;;;;;;-2.56;82.72;99094.30;215819;1264;150973;-72
2024/01/05 05:31:37;;;;;;;6.40;1.20;;;;;;;-2.51;82.88;99094.16;215785;1264;139848;-70
2024/01/05 05:36:39;;;;;;;3.90;1.40;;;;;;;-2.50;82.64;99104.75;215922;1267;139906;-69
2024/01/05 05:41:44;;;;;;;1.10;1.00;;;;;;;-2.47;82.99;99108.96;216002;1266;141259;-69
2024/01/05 05:46:48;;;;;;;2.20;1.50;;;;;;;-2.49;82.72;99109.36;216734;1264;140522;-67
2024/01/05 05:51:51;;;;;;;3.90;2.20;;;;;;;-2.51;82.72;99119.54;218917;1264;140591;-68
2024/01/05 05:56:56;;;;;;;4.20;1.30;;;;;;;-2.57;82.44;99123.41;216881;1264;140704;-68
2024/01/05 06:02:00;;;;;;;2.10;1.50;;;;;;;-2.64;82.38;99136.21;216146;1264;139796;-69
2024/01/05 06:07:03;;;;;;;3.50;2.00;;;;;;;-2.69;82.63;99154.86;216138;1264;140162;-68
2024/01/05 06:12:09;;;;;;;2.50;1.90;;;;;;;-2.75;82.61;99171.86;217948;1265;141956;-69
2024/01/05 06:17:13;;;;;;;2.90;2.60;;;;;;;-2.79;82.89;99176.18;216598;1264;140141;-67
2024/01/05 06:22:16;;;;;;;2.40;1.70;;;;;;;-2.84;83.00;99176.66;215741;1264;140369;-70
2024/01/05 06:27:19;;;;;;;3.40;2.30;;;;;;;-2.87;83.11;99178.23;216759;1264;141141;-69
2024/01/05 06:32:35;;;;;;;3.60;2.60;;;;;;;-2.85;83.56;99178.67;217006;1264;140781;-67
2024/01/05 06:37:38;;;;;;;5.70;3.30;;;;;;;-2.79;83.68;99172.98;216381;1265;139938;-67
2024/01/05 06:42:43;;;;;;;4.00;2.50;;;;;;;-2.71;83.86;99175.44;216671;1267;142074;-67
2024/01/05 06:47:46;;;;;;;10.30;4.00;;;;;;;-2.63;84.16;99177.56;216202;1264;140026;-67
2024/01/05 06:52:49;;;;;;;3.00;2.30;;;;;;;-2.56;84.08;99169.80;215959;1267;140873;-68
2024/01/05 06:57:51;;;;;;;5.00;2.60;;;;;;;-2.50;84.16;99161.82;216728;1263;141095;-66
2024/01/05 07:02:54;;;;;;;6.20;3.30;;;;;;;-2.45;84.11;99161.80;216654;1264;140107;-71
2024/01/05 07:07:58;;;;;;;8.90;4.20;;;;;;;-2.41;84.09;99165.04;216078;1264;139994;-69
2024/01/05 07:13:01;;;;;;;4.80;2.80;;;;;;;-2.36;84.13;99159.09;216342;1264;140279;-69
2024/01/05 07:18:05;;;;;;;38.90;21.10;;;;;;;-2.31;84.35;99147.77;216398;1265;140609;-70
2024/01/05 07:23:09;;;;;;;11.60;7.00;;;;;;;-2.26;84.22;99144.83;216227;1264;141117;-69
2024/01/05 07:28:13;;;;;;;23.30;11.80;;;;;;;-2.19;84.70;99151.05;217054;1264;140622;-70
2024/01/05 07:33:16;;;;;;;13.40;8.60;;;;;;;-2.15;84.21;99154.00;218864;1264;140824;-69
2024/01/05 07:38:20;;;;;;;5.90;4.00;;;;;;;-2.10;84.29;99153.93;217129;1264;141318;-68
2024/01/05 07:43:26;;;;;;;7.70;3.30;;;;;;;-2.05;84.28;99149.54;217325;1267;140125;-67
2024/01/05 07:48:29;;;;;;;7.80;3.40;;;;;;;-1.97;84.09;99143.36;218443;1262;140183;-70
2024/01/05 07:53:32;;;;;;;7.90;3.60;;;;;;;-1.91;84.00;99141.10;216563;1264;139708;-68
2024/01/05 07:58:39;;;;;;;6.30;3.90;;;;;;;-1.81;83.99;99141.00;217580;1266;140378;-68
2024/01/05 08:03:43;;;;;;;8.40;3.60;;;;;;;-1.69;83.98;99144.23;217208;1263;139891;-71
2024/01/05 08:08:49;;;;;;;6.60;2.80;;;;;;;-1.61;84.04;99150.70;217140;1267;139398;-68
2024/01/05 08:13:53;;;;;;;5.30;3.40;;;;;;;-1.56;83.89;99152.41;216783;1267;139911;-68
2024/01/05 08:18:56;;;;;;;4.70;3.70;;;;;;;-1.50;83.88;99162.94;216260;1267;139966;-68
2024/01/05 08:24:02;;;;;;;13.50;3.20;;;;;;;-1.42;83.91;99171.33;216388;1265;140093;-66
2024/01/05 08:29:06;;;;;;;8.70;5.30;;;;;;;-1.36;83.59;99171.66;217119;1264;140988;-69
2024/01/05 08:34:09;;;;;;;10.60;5.60;;;;;;;-1.34;83.55;99173.90;216263;1266;139956;-70
2024/01/05 08:39:12;;;;;;;6.00;4.30;;;;;;;-1.30;83.43;99168.92;216944;1263;140009;-75
2024/01/05 08:44:17;;;;;;;8.10;4.70;;;;;;;-1.25;83.26;99168.21;216439;1264;140146;-70
2024/01/05 08:49:20;;;;;;;5.30;4.30;;;;;;;-1.15;83.38;99162.98;216157;1264;140248;-73
2024/01/05 08:54:23;;;;;;;6.60;4.10;;;;;;;-1.05;83.62;99168.00;217475;1264;140441;-73
2024/01/05 08:59:27;;;;;;;8.60;5.80;;;;;;;-0.94;83.55;99178.46;216422;1264;139830;-71
2024/01/05 09:04:31;;;;;;;7.60;4.20;;;;;;;-0.84;83.13;99180.23;218113;1264;139814;-74
2024/01/05 09:09:39;;;;;;;6.10;4.10;;;;;;;-0.75;83.22;99189.30;216094;1264;139882;-75
2024/01/05 09:14:43;;;;;;;6.50;4.60;;;;;;;-0.64;83.31;99196.81;216122;1263;140156;-75
2024/01/05 09:19:46;;;;;;;9.00;5.70;;;;;;;-0.56;83.30;99206.84;216163;1267;140434;-70
2024/01/05 09:24:50;;;;;;;5.80;3.80;;;;;;;-0.49;82.73;99201.67;216214;1267;139944;-69
2024/01/05 09:29:53;;;;;;;6.80;4.00;;;;;;;-0.37;83.19;99206.53;215925;1267;140585;-70
2024/01/05 09:34:56;;;;;;;6.90;4.00;;;;;;;-0.29;82.48;99207.55;216016;1265;139847;-71
2024/01/05 09:40:00;;;;;;;7.50;4.30;;;;;;;-0.24;82.72;99210.78;217147;1265;139919;-70
2024/01/05 09:45:05;;;;;;;6.40;3.30;;;;;;;-0.17;82.28;99210.52;216011;1266;139939;-72
2024/01/05 09:50:11;;;;;;;6.70;3.40;;;;;;;-0.13;82.02;99209.90;216893;1263;140459;-70
2024/01/05 09:55:16;;;;;;;4.90;3.60;;;;;;;-0.06;82.03;99206.23;216282;1265;141515;-71
2024/01/05 10:00:20;;;;;;;4.70;3.40;;;;;;;0.06;82.07;99216.20;216335;1265;139752;-69
2024/01/05 10:05:25;;;;;;;5.70;3.60;;;;;;;0.09;81.27;99213.23;216686;1264;139470;-69
2024/01/05 10:10:49;;;;;;;6.50;3.10;;;;;;;0.06;80.83;99199.05;216197;1265;139651;-70
2024/01/05 10:15:56;;;;;;;4.30;2.20;;;;;;;0.14;80.95;99197.39;216059;1267;140448;-71
2024/01/05 10:21:10;;;;;;;6.60;2.60;;;;;;;0.23;80.58;99199.63;216154;1267;141246;-73
2024/01/05 10:26:17;;;;;;;4.60;3.10;;;;;;;0.26;80.40;99199.69;216097;1264;139977;-73
2024/01/05 10:31:20;;;;;;;4.40;2.60;;;;;;;0.25;79.97;99195.94;216719;1263;253068;-70
2024/01/05 10:36:25;;;;;;;6.10;2.70;;;;;;;0.27;79.78;99192.14;216132;1267;140882;-69
2024/01/05 10:41:32;;;;;;;6.20;2.10;;;;;;;0.22;79.08;99185.05;217623;1267;139869;-72
2024/01/05 10:46:36;;;;;;;3.30;2.40;;;;;;;0.22;79.15;99195.97;216223;1267;140915;-70
2024/01/05 10:51:41;;;;;;;7.00;4.30;;;;;;;0.19;78.94;99187.26;216527;1266;141379;-72
2024/01/05 10:56:45;;;;;;;4.80;3.80;;;;;;;0.22;79.13;99193.35;216177;1266;140226;-71
2024/01/05 11:01:49;;;;;;;7.90;4.70;;;;;;;0.23;78.50;99189.85;218882;1265;139943;-72
2024/01/05 11:06:52;;;;;;;8.40;4.90;;;;;;;0.29;78.79;99198.65;216243;1267;140076;-73
2024/01/05 11:12:09;;;;;;;6.90;4.80;;;;;;;0.40;79.30;99195.39;215689;1265;140243;-73
2024/01/05 11:17:36;;;;;;;7.60;4.80;;;;;;;0.43;78.64;99194.17;215870;1267;140335;-71
2024/01/05 11:22:46;;;;;;;8.70;3.20;;;;;;;0.46;78.88;99198.82;215872;1264;139287;-71
2024/01/05 11:27:50;;;;;;;10.00;4.90;;;;;;;0.40;78.22;99194.93;216966;1267;141307;-71
2024/01/05 11:32:54;;;;;;;7.00;4.20;;;;;;;0.34;78.01;99188.77;215962;1263;142027;-71
2024/01/05 11:37:58;;;;;;;8.80;4.80;;;;;;;0.27;77.94;99197.48;216507;1264;139457;-71
2024/01/05 11:43:38;;;;;;;7.60;3.80;;;;;;;0.24;77.73;99181.40;216161;1265;140140;-70
2024/01/05 11:48:41;;;;;;;9.60;5.50;;;;;;;0.31;78.53;99182.25;215611;1265;139706;-72
2024/01/05 11:53:48;;;;;;;8.50;4.60;;;;;;;0.33;77.82;99180.78;216557;1264;140497;-73
2024/01/05 11:58:51;;;;;;;9.60;4.90;;;;;;;0.30;78.26;99183.45;215878;1267;140119;-70
2024/01/05 12:03:55;;;;;;;7.20;3.60;;;;;;;0.24;77.72;99178.62;217005;1265;139839;-70
2024/01/05 12:09:01;;;;;;;4.80;3.20;;;;;;;0.17;77.40;99175.05;215883;1264;140534;-70
2024/01/05 12:14:05;;;;;;;6.30;3.90;;;;;;;0.08;77.27;99168.75;215848;1265;139638;-70
2024/01/05 12:19:20;;;;;;;5.70;3.60;;;;;;;0.04;77.51;99164.95;215910;1265;139407;-70
2024/01/05 12:24:23;;;;;;;11.70;6.40;;;;;;;0.04;77.23;99152.38;215810;1267;139520;-71
2024/01/05 12:29:27;;;;;;;5.40;4.20;;;;;;;-0.01;77.07;99148.73;215744;1267;139730;-71
2024/01/05 12:34:30;;;;;;;6.50;3.20;;;;;;;-0.00;77.57;99157.40;215835;1266;140030;-71
2024/01/05 12:39:35;;;;;;;5.10;4.30;;;;;;;0.05;77.76;99172.98;215898;1265;140130;-71
2024/01/05 12:44:38;;;;;;;8.10;5.00;;;;;;;-0.07;77.07;99177.03;215739;1267;139560;-71
2024/01/05 12:49:40;;;;;;;5.70;3.60;;;;;;;-0.18;77.33;99176.81;215874;1267;140146;-71
2024/01/05 12:54:43;;;;;;;7.20;3.20;;;;;;;-0.36;77.43;99181.47;216005;1267;139703;-71
2024/01/05 12:59:47;;;;;;;6.30;3.50;;;;;;;-0.41;77.91;99190.75;215924;1266;139821;-72
2024/01/05 13:04:50;;;;;;;8.40;4.00;;;;;;;-0.49;77.78;99195.00;215935;1265;140095;-72
2024/01/05 13:09:55;;;;;;;7.80;4.90;;;;;;;-0.67;77.57;99187.89;215861;1265;141034;-71
2024/01/05 13:14:59;;;;;;;6.00;3.70;;;;;;;-0.82;78.41;99185.39;215889;1265;139384;-71
2024/01/05 13:20:04;;;;;;;8.20;6.20;;;;;;;-0.76;79.05;99179.17;216943;1267;140678;-71
2024/01/05 13:25:13;;;;;;;11.50;7.30;;;;;;;-0.69;79.51;99176.04;216341;1267;140318;-71
2024/01/05 13:30:17;;;;;;;10.50;7.00;;;;;;;-0.62;79.65;99158.74;215796;1264;140517;-71
2024/01/05 13:35:21;;;;;;;11.60;6.40;;;;;;;-0.68;79.49;99145.24;215926;1267;140963;-72
2024/01/05 13:40:24;;;;;;;12.00;7.60;;;;;;;-0.64;80.01;99153.30;215970;1267;140639;-70
2024/01/05 13:45:28;;;;;;;16.00;7.10;;;;;;;-0.56;80.34;99149.45;216089;1265;140275;-71
2024/01/05 13:50:32;;;;;;;13.00;9.60;;;;;;;-0.49;80.49;99148.63;215774;1267;140758;-70
2024/01/05 13:55:37;;;;;;;15.70;9.10;;;;;;;-0.45;80.37;99141.89;216103;1264;140371;-70
2024/01/05 14:00:41;;;;;;;14.30;6.60;;;;;;;-0.41;80.59;99140.67;215946;1267;140239;-70
2024/01/05 14:05:44;;;;;;;14.10;8.00;;;;;;;-0.40;80.37;99132.34;215745;1267;140214;-71
2024/01/05 14:10:49;;;;;;;14.60;7.40;;;;;;;-0.41;80.52;99123.91;215898;1265;142319;-70
2024/01/05 14:15:54;;;;;;;14.70;8.10;;;;;;;-0.48;80.11;99128.10;215915;1267;139865;-70
2024/01/05 14:20:57;;;;;;;7.90;4.80;;;;;;;-0.70;80.13;99135.38;215819;1265;142001;-70
2024/01/05 14:26:07;;;;;;;5.60;4.20;;;;;;;-0.86;79.88;99145.95;215754;1267;140013;-70
2024/01/05 14:31:11;;;;;;;9.40;4.50;;;;;;;-0.96;79.89;99138.05;215939;1267;141056;-70
2024/01/05 14:36:17;;;;;;;45.30;19.30;;;;;;;-1.08;80.03;99127.55;215943;1265;140656;-71
2024/01/05 14:41:22;;;;;;;32.30;13.20;;;;;;;-1.12;80.50;99124.45;216460;1264;140432;-70
2024/01/05 14:46:31;;;;;;;13.30;7.50;;;;;;;-1.17;80.39;99121.55;216197;1267;140367;-70
2024/01/05 14:51:40;;;;;;;9.70;5.60;;;;;;;-1.27;80.37;99129.02;215852;1265;140070;-70
2024/01/05 14:56:45;;;;;;;8.90;6.00;;;;;;;-1.34;81.01;99133.80;215838;1264;140083;-72
2024/01/05 15:01:48;;;;;;;11.30;6.60;;;;;;;-1.40;81.18;99150.57;215918;1267;140678;-70
2024/01/05 15:06:54;;;;;;;11.50;7.30;;;;;;;-1.45;81.21;99148.80;216146;1268;140047;-71
2024/01/05 15:12:05;;;;;;;13.80;7.20;;;;;;;-1.50;81.24;99138.59;216217;1267;140694;-70
2024/01/05 15:17:11;;;;;;;13.70;7.30;;;;;;;-1.55;81.37;99127.69;216061;1268;139714;-70
2024/01/05 15:22:16;;;;;;;15.30;9.20;;;;;;;-1.57;81.47;99124.05;216005;1265;140854;-70
2024/01/05 15:27:19;;;;;;;18.80;13.50;;;;;;;-1.59;81.29;99125.89;216788;1267;140495;-70
2024/01/05 15:32:22;;;;;;;18.90;8.20;;;;;;;-1.60;81.46;99136.13;216001;1267;140254;-70
2024/01/05 15:37:25;;;;;;;16.70;7.00;;;;;;;-1.64;81.17;99125.63;216045;1267;140612;-70
2024/01/05 15:42:29;;;;;;;12.20;5.60;;;;;;;-1.69;81.51;99113.51;216096;1267;139725;-70
2024/01/05 15:47:34;;;;;;;8.80;4.70;;;;;;;-1.71;81.44;99124.90;216018;1267;139821;-70
2024/01/05 15:52:38;;;;;;;16.30;8.20;;;;;;;-1.73;81.47;99130.19;217043;1267;139930;-71
2024/01/05 15:57:42;;;;;;;18.20;8.70;;;;;;;-1.73;81.59;99125.98;215900;1267;140165;-69
2024/01/05 16:02:46;;;;;;;14.60;8.50;;;;;;;-1.64;81.84;99125.06;215626;1268;140177;-70
2024/01/05 16:07:48;;;;;;;11.10;6.70;;;;;;;-1.52;82.06;99124.33;215923;1268;140154;-69
2024/01/05 16:12:52;;;;;;;17.40;9.20;;;;;;;-1.47;81.77;99125.41;215985;1264;140207;-70
2024/01/05 16:17:55;;;;;;;15.70;8.80;;;;;;;-1.40;81.53;99137.07;215702;1268;140771;-70
2024/01/05 16:22:58;;;;;;;16.90;9.00;;;;;;;-1.40;81.51;99141.16;216541;1264;140757;-70
2024/01/05 16:28:02;;;;;;;29.30;15.80;;;;;;;-1.41;81.78;99115.54;216575;1264;140423;-70
2024/01/05 16:33:05;;;;;;;16.70;10.70;;;;;;;-1.32;81.98;99104.38;215786;1266;140652;-69
2024/01/05 16:38:09;;;;;;;18.90;9.80;;;;;;;-1.28;81.82;99095.14;217413;1264;142123;-71
2024/01/05 16:43:12;;;;;;;15.80;8.10;;;;;;;-1.24;81.72;99107.56;216530;1264;140135;-70
2024/01/05 16:48:18;;;;;;;18.00;8.40;;;;;;;-1.20;81.88;99104.63;215968;1264;141923;-68
2024/01/05 16:53:24;;;;;;;16.70;8.50;;;;;;;-1.18;81.91;99118.06;216863;1263;141456;-70
2024/01/05 16:58:27;;;;;;;36.00;14.70;;;;;;;-1.18;81.65;99130.41;216557;1264;142022;-69
2024/01/05 17:03:31;;;;;;;25.40;12.40;;;;;;;-1.21;81.96;99143.52;216040;1268;141030;-70
2024/01/05 17:08:34;;;;;;;21.40;9.90;;;;;;;-1.22;82.03;99139.05;215700;1269;140361;-69
2024/01/05 17:13:37;;;;;;;19.40;10.40;;;;;;;-1.18;81.96;99140.84;217848;1264;141492;-73
2024/01/05 17:18:42;;;;;;;20.50;9.10;;;;;;;-1.13;82.09;99133.98;219052;1264;140367;-73
2024/01/05 17:23:46;;;;;;;21.00;11.20;;;;;;;-1.10;81.77;99145.50;218546;1264;161990;-73
2024/01/05 17:28:48;;;;;;;18.60;10.00;;;;;;;-1.08;81.65;99140.62;215857;1267;140375;-70
2024/01/05 17:33:51;;;;;;;18.70;10.10;;;;;;;-1.05;81.86;99137.79;216345;1267;140014;-71
2024/01/05 17:38:58;;;;;;;17.00;9.50;;;;;;;-1.06;81.97;99139.27;215877;1270;140822;-70
2024/01/05 17:44:01;;;;;;;14.90;8.70;;;;;;;-1.06;81.34;99138.48;215754;1264;140335;-71
2024/01/05 17:49:04;;;;;;;18.60;7.90;;;;;;;-1.10;81.62;99146.75;216815;1262;140236;-70
2024/01/05 17:54:07;;;;;;;12.40;7.00;;;;;;;-1.12;81.47;99146.46;216081;1264;141032;-70
2024/01/05 17:59:11;;;;;;;9.90;5.80;;;;;;;-1.15;81.26;99145.59;216567;1264;140147;-70
2024/01/05 18:04:15;;;;;;;11.20;6.00;;;;;;;-1.19;81.43;99151.47;216040;1264;140944;-69
2024/01/05 18:09:18;;;;;;;11.00;5.30;;;;;;;-1.20;81.54;99151.25;215929;1269;141407;-71
2024/01/05 18:14:22;;;;;;;12.50;6.40;;;;;;;-1.21;81.58;99148.27;215709;1264;140576;-70
2024/01/05 18:19:25;;;;;;;11.60;5.60;;;;;;;-1.22;81.61;99148.83;215816;1264;142099;-69
2024/01/05 18:24:28;;;;;;;14.50;6.80;;;;;;;-1.22;81.39;99148.13;216470;1267;140798;-69
2024/01/05 18:29:31;;;;;;;13.70;7.10;;;;;;;-1.23;81.54;99146.48;215935;1268;140848;-69
2024/01/05 18:34:34;;;;;;;17.00;6.30;;;;;;;-1.24;81.67;99145.02;215874;1264;140257;-70
2024/01/05 18:39:38;;;;;;;8.10;6.00;;;;;;;-1.23;81.64;99143.17;215964;1264;141295;-68
2024/01/05 18:44:42;;;;;;;11.10;6.50;;;;;;;-1.23;81.54;99136.29;217082;1264;140757;-68
2024/01/05 18:49:45;;;;;;;18.80;9.30;;;;;;;-1.25;81.59;99132.64;215945;1267;140476;-70
2024/01/05 18:55:03;;;;;;;17.40;8.00;;;;;;;-1.25;81.44;99141.77;215931;1264;140195;-70
2024/01/05 19:00:10;;;;;;;15.30;7.90;;;;;;;-1.24;81.61;99143.20;216145;1264;139730;-69
2024/01/05 19:05:19;;;;;;;11.90;7.80;;;;;;;-1.22;81.56;99139.04;216623;1263;140614;-69
2024/01/05 19:10:23;;;;;;;11.00;6.10;;;;;;;-1.22;81.51;99136.42;219144;1264;140046;-70
2024/01/05 19:15:25;;;;;;;17.50;10.00;;;;;;;-1.20;81.35;99134.88;215994;1264;140755;-69
2024/01/05 19:20:31;;;;;;;12.50;6.90;;;;;;;-1.17;81.66;99140.54;218926;1263;140553;-70
2024/01/05 19:25:35;;;;;;;17.30;8.80;;;;;;;-1.15;81.44;99141.70;218035;1264;140790;-71
2024/01/05 19:30:37;;;;;;;20.90;7.90;;;;;;;-1.11;81.63;99138.64;217204;1263;139928;-70
2024/01/05 19:35:41;;;;;;;23.10;10.30;;;;;;;-1.05;81.65;99123.56;215798;1264;140737;-70
2024/01/05 19:40:43;;;;;;;20.10;11.30;;;;;;;-1.04;81.68;99111.33;215963;1267;140437;-69
2024/01/05 19:45:46;;;;;;;18.10;10.00;;;;;;;-1.02;81.82;99099.98;216782;1264;140328;-70
2024/01/05 19:50:49;;;;;;;26.80;12.10;;;;;;;-1.03;81.80;99097.62;215940;1267;140988;-70
2024/01/05 19:55:56;;;;;;;16.10;9.40;;;;;;;-1.06;81.74;99095.35;215768;1264;141007;-71
2024/01/05 20:01:02;;;;;;;25.00;12.30;;;;;;;-1.08;81.77;99089.19;215824;1264;141181;-70
2024/01/05 20:06:06;;;;;;;15.60;9.90;;;;;;;-1.10;81.67;99081.52;216005;1264;140418;-69
2024/01/05 20:11:13;;;;;;;18.20;9.70;;;;;;;-1.10;81.73;99077.93;216615;1267;140581;-70
2024/01/05 20:16:15;;;;;;;14.70;8.30;;;;;;;-1.09;82.03;99072.36;215883;1264;140429;-70
2024/01/05 20:21:18;;;;;;;20.80;10.60;;;;;;;-1.07;82.29;99067.93;215967;1264;140052;-69
2024/01/05 20:26:22;;;;;;;13.30;6.80;;;;;;;-1.04;82.32;99068.30;215952;1267;140333;-70
2024/01/05 20:31:26;;;;;;;22.20;9.50;;;;;;;-1.06;82.12;99063.48;216188;1267;140323;-70
2024/01/05 20:36:29;;;;;;;21.20;10.90;;;;;;;-1.14;82.11;99059.12;216155;1263;139925;-69
2024/01/05 20:41:33;;;;;;;19.70;11.30;;;;;;;-1.20;82.26;99048.70;215757;1264;152209;-71
2024/01/05 20:46:40;;;;;;;24.80;11.50;;;;;;;-1.17;82.38;99041.07;215920;1267;139970;-70
2024/01/05 20:51:43;;;;;;;21.80;11.70;;;;;;;-1.12;82.54;99032.40;215844;1267;141236;-71
2024/01/05 20:56:46;;;;;;;20.50;10.10;;;;;;;-1.07;82.43;99024.55;217301;1264;140470;-72
2024/01/05 21:01:49;;;;;;;15.70;9.10;;;;;;;-1.04;82.34;99023.35;218560;1266;142349;-69
2024/01/05 21:06:52;;;;;;;12.00;6.50;;;;;;;-1.05;82.38;99023.19;216024;1265;139770;-72
2024/01/05 21:11:55;;;;;;;17.00;8.80;;;;;;;-1.05;82.31;99026.04;217713;1264;140390;-73
2024/01/05 21:16:57;;;;;;;14.30;6.80;;;;;;;-1.06;82.31;99025.77;216177;1265;141111;-67
2024/01/05 21:22:08;;;;;;;17.30;10.20;;;;;;;-1.06;82.19;99017.29;216095;1264;142027;-68
2024/01/05 21:27:11;;;;;;;14.20;7.30;;;;;;;-1.05;82.55;99007.85;216069;1264;140493;-66
2024/01/05 21:32:16;;;;;;;16.80;7.90;;;;;;;-1.01;82.22;99012.49;217110;1267;140020;-67
2024/01/05 21:37:19;;;;;;;17.80;9.10;;;;;;;-0.99;82.31;99010.22;218036;1264;140976;-66
2024/01/05 21:42:22;;;;;;;18.30;9.40;;;;;;;-0.93;82.46;99010.59;216299;1267;140037;-71
2024/01/05 21:47:26;;;;;;;22.50;9.90;;;;;;;-0.88;82.49;99006.43;216267;1267;142208;-70
2024/01/05 21:52:29;;;;;;;24.60;12.00;;;;;;;-0.83;82.25;98998.73;216569;1265;139757;-70
2024/01/05 21:57:34;;;;;;;25.70;10.60;;;;;;;-0.80;82.49;99003.73;216394;1263;141991;-69
2024/01/05 22:02:36;;;;;;;22.30;12.20;;;;;;;-0.76;82.35;99000.37;216484;1265;141235;-67
2024/01/05 22:07:39;;;;;;;19.40;9.30;;;;;;;-0.71;82.53;99001.54;216574;1263;140340;-69
2024/01/05 22:12:41;;;;;;;25.80;13.10;;;;;;;-0.70;82.45;98999.02;216196;1264;222324;-68
2024/01/05 22:17:45;;;;;;;28.40;15.10;;;;;;;-0.66;82.70;98999.71;216358;1265;140207;-69
2024/01/05 22:22:49;;;;;;;23.20;11.30;;;;;;;-0.62;82.52;99004.80;216464;1267;140091;-70
2024/01/05 22:27:52;;;;;;;25.20;13.90;;;;;;;-0.59;82.53;99004.58;216337;1264;142843;-68
2024/01/05 22:32:55;;;;;;;21.70;12.20;;;;;;;-0.58;82.41;99003.39;215716;1268;397505;-69
2024/01/05 22:37:58;;;;;;;25.90;12.00;;;;;;;-0.57;82.03;99003.68;215906;1267;142638;-70
2024/01/05 22:43:01;;;;;;;17.20;9.00;;;;;;;-0.56;82.14;99006.32;216313;1267;140348;-67
2024/01/05 22:48:07;;;;;;;26.00;12.40;;;;;;;-0.55;82.37;99009.39;217231;1264;151724;-69
2024/01/05 22:53:12;;;;;;;20.90;12.60;;;;;;;-0.52;82.19;99011.15;217255;1262;143189;-69
2024/01/05 22:58:16;;;;;;;15.80;10.70;;;;;;;-0.51;81.83;99009.57;216665;1264;140155;-69
2024/01/05 23:03:20;;;;;;;18.50;10.90;;;;;;;-0.54;82.00;99017.83;216829;1266;140627;-69
2024/01/05 23:08:24;;;;;;;22.00;10.50;;;;;;;-0.58;82.10;99020.90;217064;1264;140301;-73
2024/01/05 23:13:26;;;;;;;22.60;12.10;;;;;;;-0.60;82.16;99018.17;216486;1264;140918;-70